LIPQ/TRS METAR and TAF weather

Enter ICAO airport designator
Station Type Date Time Source
LIPQ METAR 2020/04/05 22:20 UTC NOAA

LIPQ 052220Z AUTO 05007KT 9999 NCD 16/00 Q1025


Station Type Date Time Source
LIPQ Decoded METAR 2020/04/05 22:20 UTC NOAA

Ronchi Dei Legionari, Italy (LIPQ) 45-49N 013-29E 12M
Apr 05, 2020 - 06:20 PM EDT / 2020.04.05 2220 UTC
Wind: from the NE (050 degrees) at 8 MPH (7 KT):0
Visibility: greater than 7 mile(s):0
Temperature: 60 F (16 C)
Dew Point: 32 F (0 C)
Relative Humidity: 33%
Pressure (altimeter): 30.27 in. Hg (1025 hPa)
ob: LIPQ 052220Z AUTO 05007KT 9999 NCD 16/00 Q1025
cycle: 22

Station Type Date Time Source
LIPQ TAF 2020/04/05 18:21 UTC NOAA

TAF LIPQ 051700Z 0518/0618 05007KT CAVOK

Example: see airport list